createdAt,value
2017-05-09T00:00:38.102Z,6.52
2017-05-09T00:03:08.071Z,6.28
2017-05-09T00:05:38.225Z,6.40
2017-05-09T00:08:08.953Z,6.56
2017-05-09T00:10:39.894Z,5.48
2017-05-09T00:13:10.602Z,7.42
2017-05-09T00:15:40.732Z,5.66
2017-05-09T00:18:11.449Z,5.40
2017-05-09T00:20:41.799Z,5.30
2017-05-09T00:23:12.509Z,6.00
2017-05-09T00:25:43.366Z,5.86
2017-05-09T00:28:14.055Z,5.98
2017-05-09T00:30:44.213Z,6.80
2017-05-09T00:33:14.929Z,8.18
2017-05-09T00:35:45.172Z,9.60
2017-05-09T00:38:15.891Z,5.90
2017-05-09T00:40:46.128Z,5.28
2017-05-09T00:43:16.105Z,6.00
2017-05-09T00:45:46.559Z,5.94
2017-05-09T00:48:17.305Z,6.18
2017-05-09T00:50:48.229Z,6.80
2017-05-09T00:53:18.957Z,5.66
2017-05-09T00:55:49.116Z,5.24
2017-05-09T00:58:19.087Z,5.58
2017-05-09T01:00:49.213Z,7.04
2017-05-09T01:03:19.934Z,5.04
2017-05-09T01:05:50.073Z,5.44
2017-05-09T01:08:20.765Z,5.34
2017-05-09T01:10:50.929Z,5.92
2017-05-09T01:13:21.628Z,5.14
2017-05-09T01:15:51.795Z,7.86
2017-05-09T01:18:22.494Z,5.62
2017-05-09T01:20:52.661Z,4.78
2017-05-09T01:23:22.633Z,4.66
2017-05-09T01:25:52.865Z,5.44
2017-05-09T01:28:23.577Z,5.78
2017-05-09T01:30:53.841Z,5.72
2017-05-09T01:33:23.813Z,7.04
2017-05-09T01:35:53.644Z,5.82
2017-05-09T01:38:23.646Z,4.42
2017-05-09T01:40:53.993Z,5.46
2017-05-09T01:43:24.722Z,4.24
2017-05-09T01:45:54.878Z,4.78
2017-05-09T01:48:24.918Z,6.68
2017-05-09T01:50:55.184Z,4.52
2017-05-09T01:53:25.909Z,5.34
2017-05-09T01:55:56.778Z,4.88
2017-05-09T01:58:26.740Z,5.08
2017-05-09T02:00:56.883Z,4.48
2017-05-09T02:03:27.606Z,5.18
2017-05-09T02:05:58.545Z,5.62
2017-05-09T02:08:29.248Z,4.46
2017-05-09T02:10:59.482Z,6.46
2017-05-09T02:13:29.441Z,4.76
2017-05-09T02:15:59.684Z,5.20
2017-05-09T02:18:29.307Z,6.72
2017-05-09T02:20:59.664Z,4.68
2017-05-09T02:23:30.388Z,5.44
2017-05-09T02:26:00.564Z,4.30
2017-05-09T02:28:30.576Z,7.30
2017-05-09T02:31:00.852Z,6.44
2017-05-09T02:33:31.557Z,4.22
2017-05-09T02:36:01.712Z,3.96
2017-05-09T02:38:31.694Z,4.60
2017-05-09T02:41:01.834Z,4.52
2017-05-09T02:43:31.828Z,4.84
2017-05-09T02:46:02.084Z,6.64
2017-05-09T02:48:32.784Z,4.48
2017-05-09T02:51:02.736Z,5.28
2017-05-09T02:53:33.441Z,6.48
2017-05-09T02:56:03.581Z,5.80
2017-05-09T02:58:34.294Z,4.50
2017-05-09T03:01:04.438Z,5.20
2017-05-09T03:03:34.440Z,6.34
2017-05-09T03:06:05.383Z,4.20
2017-05-09T03:08:36.100Z,5.48
2017-05-09T03:11:06.363Z,7.06
2017-05-09T03:13:36.335Z,8.68
2017-05-09T03:16:06.482Z,4.62
2017-05-09T03:18:36.447Z,6.68
2017-05-09T03:21:06.812Z,4.62
2017-05-09T03:23:37.531Z,5.12
2017-05-09T03:26:07.670Z,5.64
2017-05-09T03:28:38.368Z,4.66
2017-05-09T03:31:08.515Z,6.22
2017-05-09T03:33:39.225Z,5.28
2017-05-09T03:36:09.439Z,5.32
2017-05-09T03:38:39.631Z,5.24
2017-05-09T03:41:10.112Z,4.78
2017-05-09T03:43:40.825Z,7.54
2017-05-09T03:46:10.974Z,4.94
2017-05-09T03:48:41.671Z,4.52
2017-05-09T03:51:12.022Z,5.30
2017-05-09T03:53:42.732Z,5.20
2017-05-09T03:56:12.888Z,4.96
2017-05-09T03:58:42.857Z,5.80
2017-05-09T04:01:13.011Z,5.14
2017-05-09T04:03:42.981Z,4.86
2017-05-09T04:06:13.139Z,5.22
2017-05-09T04:08:43.865Z,7.26
2017-05-09T04:11:14.097Z,7.12
2017-05-09T04:13:44.068Z,7.44
2017-05-09T04:16:14.438Z,6.72
2017-05-09T04:18:45.157Z,5.08
2017-05-09T04:21:15.498Z,5.96
2017-05-09T04:23:46.198Z,6.18
2017-05-09T04:26:16.342Z,5.02
2017-05-09T04:28:47.066Z,7.64
2017-05-09T04:31:17.947Z,5.32
2017-05-09T04:33:47.945Z,6.12
2017-05-09T04:36:18.151Z,5.36
2017-05-09T04:38:48.863Z,5.32
2017-05-09T04:41:18.993Z,6.34
2017-05-09T04:43:49.752Z,6.54
2017-05-09T04:46:19.943Z,6.72
2017-05-09T04:48:49.912Z,6.00
2017-05-09T04:51:20.160Z,5.32
2017-05-09T04:53:50.162Z,6.80
2017-05-09T04:56:20.334Z,5.32
2017-05-09T04:58:51.026Z,5.70
2017-05-09T05:01:21.185Z,7.62
2017-05-09T05:03:51.175Z,5.42
2017-05-09T05:06:21.410Z,5.70
2017-05-09T05:08:52.063Z,7.50
2017-05-09T05:11:22.355Z,6.00
2017-05-09T05:13:53.065Z,5.62
2017-05-09T05:16:23.360Z,5.82
2017-05-09T05:18:53.132Z,6.88
2017-05-09T05:21:23.471Z,7.04
2017-05-09T05:23:53.433Z,5.88
2017-05-09T05:26:23.595Z,6.12
2017-05-09T05:28:54.345Z,6.92
2017-05-09T05:31:24.446Z,6.70
2017-05-09T05:33:54.424Z,7.50
2017-05-09T05:36:24.704Z,7.44
2017-05-09T05:38:54.653Z,8.12
2017-05-09T05:41:24.801Z,9.58
2017-05-09T05:43:54.761Z,7.90
2017-05-09T05:46:25.044Z,6.62
2017-05-09T05:48:55.753Z,7.50
2017-05-09T05:51:26.110Z,5.40
2017-05-09T05:53:56.833Z,6.22
2017-05-09T05:56:27.781Z,8.28
2017-05-09T05:58:58.481Z,5.80
2017-05-09T06:01:28.633Z,9.84
2017-05-09T06:03:59.341Z,6.94
2017-05-09T06:06:30.305Z,7.76
2017-05-09T06:09:01.000Z,7.34
2017-05-09T06:11:31.969Z,7.18
2017-05-09T06:14:02.665Z,7.42
2017-05-09T06:16:32.815Z,7.10
2017-05-09T06:19:02.769Z,7.50
2017-05-09T06:21:33.057Z,7.34
2017-05-09T06:24:03.773Z,6.42
2017-05-09T06:26:34.617Z,8.16
2017-05-09T06:29:05.319Z,13.14
2017-05-09T06:31:35.469Z,8.22
2017-05-09T06:34:06.266Z,5.86
2017-05-09T06:36:37.135Z,5.08
2017-05-09T06:39:07.093Z,5.72
2017-05-09T06:41:37.278Z,9.22
2017-05-09T06:44:07.989Z,5.26
2017-05-09T06:46:38.969Z,9.00
2017-05-09T06:49:08.937Z,8.70
2017-05-09T06:51:39.192Z,7.56
2017-05-09T06:54:09.165Z,6.48
2017-05-09T06:56:39.329Z,6.24
2017-05-09T06:59:09.301Z,8.98
2017-05-09T07:01:39.446Z,6.62
2017-05-09T07:04:10.171Z,5.92
2017-05-09T07:06:40.397Z,6.26
2017-05-09T07:09:11.101Z,5.86
2017-05-09T07:11:41.362Z,7.88
2017-05-09T07:14:12.069Z,6.54
2017-05-09T07:16:42.315Z,6.30
2017-05-09T07:19:13.025Z,8.70
2017-05-09T07:21:43.268Z,5.54
2017-05-09T07:24:13.262Z,5.20
2017-05-09T07:26:43.409Z,6.18
2017-05-09T07:29:13.405Z,6.40
2017-05-09T07:31:43.541Z,4.66
2017-05-09T07:34:13.529Z,4.06
2017-05-09T07:36:43.616Z,4.72
2017-05-09T07:39:13.588Z,9.50
2017-05-09T07:41:44.434Z,7.98
2017-05-09T07:44:15.136Z,5.26
2017-05-09T07:46:45.232Z,4.94
2017-05-09T07:49:15.207Z,6.04
2017-05-09T07:51:45.412Z,7.32
2017-05-09T07:54:15.388Z,7.64
2017-05-09T07:56:45.548Z,8.60
2017-05-09T07:59:14.748Z,5.10
2017-05-09T08:01:44.741Z,4.28
2017-05-09T08:04:14.732Z,4.08
2017-05-09T08:06:44.713Z,5.44
2017-05-09T08:09:16.345Z,5.16
2017-05-09T08:11:47.057Z,3.24
2017-05-09T08:14:17.293Z,3.92
2017-05-09T08:16:48.008Z,4.38
2017-05-09T08:19:18.253Z,4.38
2017-05-09T08:21:48.978Z,4.48
2017-05-09T08:24:19.917Z,5.20
2017-05-09T08:26:50.637Z,4.28
2017-05-09T08:29:20.766Z,5.64
2017-05-09T08:31:50.984Z,5.82
2017-05-09T08:34:21.924Z,4.26
2017-05-09T08:36:52.641Z,3.88
2017-05-09T08:39:22.833Z,8.76
2017-05-09T08:41:52.804Z,10.32
2017-05-09T08:44:23.013Z,5.50
2017-05-09T08:46:53.738Z,5.70
2017-05-09T08:49:23.893Z,5.06
2017-05-09T08:51:53.845Z,5.26
2017-05-09T08:54:24.111Z,5.10
2017-05-09T08:56:54.091Z,5.58
2017-05-09T08:59:24.236Z,5.36
2017-05-09T09:01:54.951Z,7.32
2017-05-09T09:04:25.201Z,5.36
2017-05-09T09:06:55.940Z,4.46
2017-05-09T09:09:26.145Z,4.46
2017-05-09T09:11:56.140Z,4.80
2017-05-09T09:14:26.280Z,5.36
2017-05-09T09:16:56.985Z,5.00
2017-05-09T09:19:27.129Z,5.90
2017-05-09T09:21:57.852Z,6.22
2017-05-09T09:24:28.086Z,3.86
2017-05-09T09:26:58.079Z,4.84
2017-05-09T09:29:28.898Z,5.08
2017-05-09T09:31:58.885Z,9.20
2017-05-09T09:34:29.068Z,5.10
2017-05-09T09:36:59.080Z,5.74
2017-05-09T09:39:30.017Z,5.88
2017-05-09T09:42:00.736Z,5.64
2017-05-09T09:44:31.668Z,5.30
2017-05-09T09:47:01.641Z,4.92
2017-05-09T09:49:31.828Z,6.24
2017-05-09T09:52:01.793Z,6.78
2017-05-09T09:54:31.943Z,5.20
2017-05-09T09:57:01.909Z,4.50
2017-05-09T09:59:32.032Z,4.20
2017-05-09T10:02:02.004Z,6.04
2017-05-09T10:04:32.160Z,4.46
2017-05-09T10:07:02.141Z,5.04
2017-05-09T10:09:32.286Z,5.70
2017-05-09T10:12:02.253Z,4.94
2017-05-09T10:14:32.349Z,4.96
2017-05-09T10:17:02.310Z,4.44
2017-05-09T10:19:32.468Z,4.44
2017-05-09T10:22:02.454Z,4.00
2017-05-09T10:24:32.559Z,4.40
2017-05-09T10:27:02.511Z,5.18
2017-05-09T10:29:32.710Z,4.28
2017-05-09T10:32:02.727Z,4.16
2017-05-09T10:34:32.842Z,5.14
2017-05-09T10:37:03.545Z,5.16
2017-05-09T10:39:33.701Z,4.80
2017-05-09T10:42:03.689Z,4.10
2017-05-09T10:44:33.878Z,4.30
2017-05-09T10:47:03.842Z,5.88
2017-05-09T10:49:34.899Z,4.92
2017-05-09T10:52:05.782Z,5.32
2017-05-09T10:54:36.027Z,5.96
2017-05-09T10:57:06.745Z,4.38
2017-05-09T10:59:37.157Z,4.96
2017-05-09T11:02:07.139Z,4.84
2017-05-09T11:04:37.435Z,5.00
2017-05-09T11:07:07.426Z,4.16
2017-05-09T11:09:37.669Z,4.32
2017-05-09T11:12:07.741Z,4.50
2017-05-09T11:14:38.003Z,4.78
2017-05-09T11:17:08.007Z,4.92
2017-05-09T11:19:38.244Z,4.14
2017-05-09T11:22:08.963Z,4.50
2017-05-09T11:24:39.913Z,8.14
2017-05-09T11:27:10.658Z,6.52
2017-05-09T11:29:40.778Z,4.70
2017-05-09T11:32:10.741Z,4.24
2017-05-09T11:34:40.893Z,4.04
2017-05-09T11:37:11.680Z,4.10
2017-05-09T11:39:41.827Z,3.98
2017-05-09T11:42:11.797Z,3.92
2017-05-09T11:44:41.999Z,4.72
2017-05-09T11:47:12.853Z,4.14
2017-05-09T11:49:43.097Z,4.88
2017-05-09T11:52:13.470Z,4.46
2017-05-09T11:54:43.670Z,5.00
2017-05-09T11:57:13.630Z,6.46
2017-05-09T11:59:43.797Z,5.24
2017-05-09T12:02:13.967Z,5.34
2017-05-09T12:04:44.539Z,4.10
2017-05-09T12:07:14.484Z,4.80
2017-05-09T12:09:45.662Z,4.62
2017-05-09T12:12:15.913Z,5.58
2017-05-09T12:14:46.197Z,4.42
2017-05-09T12:17:16.169Z,7.20
2017-05-09T12:19:46.617Z,7.12
2017-05-09T12:22:16.597Z,5.34
2017-05-09T12:24:46.745Z,5.38
2017-05-09T12:27:17.574Z,5.36
2017-05-09T12:29:47.809Z,5.52
2017-05-09T12:32:17.793Z,5.52
2017-05-09T12:34:48.211Z,6.36
2017-05-09T12:37:18.206Z,6.82
2017-05-09T12:39:48.311Z,5.42
2017-05-09T12:42:18.298Z,6.16
2017-05-09T12:44:49.465Z,5.58
2017-05-09T12:47:19.440Z,7.94
2017-05-09T12:49:49.549Z,7.94
2017-05-09T12:52:19.564Z,7.34
2017-05-09T12:54:50.156Z,5.90
2017-05-09T12:57:20.120Z,5.42
2017-05-09T12:59:51.560Z,6.72
2017-05-09T13:02:21.576Z,8.08
2017-05-09T13:04:51.751Z,7.82
2017-05-09T13:07:22.165Z,9.40
2017-05-09T13:09:53.356Z,7.72
2017-05-09T13:12:23.442Z,8.38
2017-05-09T13:14:53.580Z,12.60
2017-05-09T13:17:23.575Z,9.18
2017-05-09T13:19:53.960Z,9.50
2017-05-09T13:22:25.021Z,8.60
2017-05-09T13:24:55.186Z,9.32
2017-05-09T13:27:26.188Z,10.54
2017-05-09T13:29:56.527Z,8.52
2017-05-09T13:32:26.532Z,8.64
2017-05-09T13:34:56.668Z,9.98
2017-05-09T13:37:26.652Z,16.42
2017-05-09T13:39:56.852Z,9.18
2017-05-09T13:42:27.569Z,8.64
2017-05-09T13:44:58.380Z,9.34
2017-05-09T13:47:28.722Z,8.54
2017-05-09T13:49:59.735Z,9.80
2017-05-09T13:52:29.739Z,8.10
2017-05-09T13:54:59.888Z,9.10
2017-05-09T13:57:29.946Z,8.72
2017-05-09T14:00:00.314Z,9.96
2017-05-09T14:02:31.076Z,9.00
2017-05-09T14:05:01.594Z,9.58
2017-05-09T14:07:31.594Z,8.38
2017-05-09T14:10:02.720Z,10.48
2017-05-09T14:12:32.744Z,8.72
2017-05-09T14:15:02.883Z,9.00
2017-05-09T14:17:32.854Z,8.88
2017-05-09T14:20:02.957Z,9.82
2017-05-09T14:22:33.861Z,8.90
2017-05-09T14:25:04.129Z,9.12
2017-05-09T14:27:34.112Z,9.08
2017-05-09T14:30:04.200Z,8.78
2017-05-09T14:32:34.702Z,9.82
2017-05-09T14:35:05.000Z,7.90
2017-05-09T14:37:34.990Z,12.90
2017-05-09T14:40:05.139Z,8.44
2017-05-09T14:42:35.124Z,7.52
2017-05-09T14:45:05.220Z,9.48
2017-05-09T14:47:35.414Z,8.94
2017-05-09T14:50:06.429Z,9.14
2017-05-09T14:52:36.597Z,7.98
2017-05-09T14:55:06.728Z,9.06
2017-05-09T14:57:36.709Z,8.84
2017-05-09T15:00:06.902Z,10.46
2017-05-09T15:02:36.871Z,9.10
2017-05-09T15:05:06.998Z,10.50
2017-05-09T15:07:37.315Z,9.72
2017-05-09T15:10:07.469Z,10.02
2017-05-09T15:12:38.176Z,10.18
2017-05-09T15:15:08.420Z,11.70
2017-05-09T15:17:39.147Z,10.48
2017-05-09T15:20:10.019Z,9.36
2017-05-09T15:22:39.994Z,10.54
2017-05-09T15:25:10.948Z,8.92
2017-05-09T15:27:40.980Z,9.52
2017-05-09T15:30:11.089Z,10.40
2017-05-09T15:32:41.794Z,9.90
2017-05-09T15:35:12.039Z,10.14
2017-05-09T15:37:42.788Z,10.42
2017-05-09T15:40:12.971Z,10.76
2017-05-09T15:42:43.717Z,10.40
2017-05-09T15:45:14.680Z,11.88
2017-05-09T15:47:44.845Z,12.00
2017-05-09T15:50:15.105Z,12.24
2017-05-09T15:52:44.514Z,11.16
2017-05-09T15:55:14.733Z,8.62
2017-05-09T15:57:44.760Z,10.74
2017-05-09T16:00:14.952Z,13.52
2017-05-09T16:02:45.135Z,13.44
2017-05-09T16:05:15.325Z,14.52
2017-05-09T16:07:45.297Z,12.86
2017-05-09T16:10:16.423Z,12.48
2017-05-09T16:12:46.453Z,12.52
2017-05-09T16:15:16.909Z,12.58
2017-05-09T16:17:46.898Z,12.96
2017-05-09T16:20:17.799Z,14.06
2017-05-09T16:22:47.796Z,12.10
2017-05-09T16:25:19.239Z,12.72
2017-05-09T16:27:49.208Z,12.48
2017-05-09T16:30:19.241Z,13.50
2017-05-09T16:32:49.975Z,13.30
2017-05-09T16:35:20.929Z,21.88
2017-05-09T16:37:50.912Z,19.62
2017-05-09T16:40:21.102Z,14.74
2017-05-09T16:42:51.075Z,13.88
2017-05-09T16:45:21.189Z,12.52
2017-05-09T16:47:51.191Z,13.26
2017-05-09T16:50:22.145Z,14.06
2017-05-09T16:52:52.133Z,14.00
2017-05-09T16:55:22.277Z,13.26
2017-05-09T16:57:53.006Z,12.78
2017-05-09T17:00:23.953Z,12.56
2017-05-09T17:02:54.670Z,14.46
2017-05-09T17:05:25.622Z,12.98
2017-05-09T17:07:55.563Z,12.26
2017-05-09T17:10:25.757Z,12.26
2017-05-09T17:12:55.741Z,12.78
2017-05-09T17:15:25.889Z,12.28
2017-05-09T17:17:55.881Z,10.94
2017-05-09T17:20:26.132Z,11.74
2017-05-09T17:22:56.117Z,12.50
2017-05-09T17:25:26.327Z,11.84
2017-05-09T17:27:56.316Z,12.30
2017-05-09T17:30:26.500Z,11.22
2017-05-09T17:32:56.480Z,10.14
2017-05-09T17:35:26.844Z,11.26
2017-05-09T17:37:56.832Z,13.98
2017-05-09T17:40:27.793Z,11.90
2017-05-09T17:42:59.113Z,12.88
2017-05-09T17:45:29.257Z,12.88
2017-05-09T17:47:59.256Z,14.80
2017-05-09T17:50:30.101Z,12.82
2017-05-09T17:53:00.820Z,11.60
2017-05-09T17:55:31.785Z,12.26
2017-05-09T17:58:01.782Z,10.96
2017-05-09T18:00:32.738Z,15.12
2017-05-09T18:03:03.429Z,10.52
2017-05-09T18:05:33.581Z,11.64
2017-05-09T18:08:03.557Z,9.30
2017-05-09T18:10:33.664Z,10.62
2017-05-09T18:13:03.651Z,11.46
2017-05-09T18:15:33.853Z,11.92
2017-05-09T18:18:03.926Z,13.96
2017-05-09T18:20:34.083Z,10.72
2017-05-09T18:23:04.080Z,8.78
2017-05-09T18:25:34.228Z,8.94
2017-05-09T18:28:04.933Z,8.98
2017-05-09T18:30:35.072Z,7.96
2017-05-09T18:33:05.072Z,7.78
2017-05-09T18:35:35.312Z,8.34
2017-05-09T18:38:05.305Z,8.30
2017-05-09T18:40:35.444Z,8.62
2017-05-09T18:43:05.429Z,8.54
2017-05-09T18:45:35.586Z,7.24
2017-05-09T18:48:06.316Z,7.80
2017-05-09T18:50:37.257Z,8.72
2017-05-09T18:53:07.272Z,9.00
2017-05-09T18:55:38.099Z,8.82
2017-05-09T18:58:08.257Z,8.82
2017-05-09T19:00:38.440Z,8.42
2017-05-09T19:03:09.193Z,8.62
2017-05-09T19:05:40.012Z,7.62
2017-05-09T19:08:10.730Z,9.84
2017-05-09T19:10:41.680Z,9.48
2017-05-09T19:13:13.320Z,10.18
2017-05-09T19:15:43.422Z,9.36
2017-05-09T19:18:13.427Z,11.94
2017-05-09T19:20:43.620Z,9.04
2017-05-09T19:23:13.594Z,8.86
2017-05-09T19:25:44.546Z,17.14
2017-05-09T19:28:14.550Z,18.60
2017-05-09T19:30:44.776Z,17.50
2017-05-09T19:33:15.510Z,10.74
2017-05-09T19:35:46.470Z,9.14
2017-05-09T19:38:16.462Z,10.14
2017-05-09T19:40:47.418Z,9.60
2017-05-09T19:43:18.856Z,7.98
2017-05-09T19:45:49.776Z,9.12
2017-05-09T19:48:20.529Z,10.06
2017-05-09T19:50:50.745Z,9.28
2017-05-09T19:53:21.468Z,9.52
2017-05-09T19:55:52.431Z,8.78
2017-05-09T19:58:22.421Z,14.14
2017-05-09T20:00:53.383Z,18.38
2017-05-09T20:03:23.389Z,11.76
2017-05-09T20:05:53.606Z,11.16
2017-05-09T20:08:24.540Z,9.38
2017-05-09T20:10:54.700Z,10.24
2017-05-09T20:13:24.692Z,9.66
2017-05-09T20:15:54.890Z,9.86
2017-05-09T20:18:25.608Z,9.12
2017-05-09T20:20:55.846Z,9.98
2017-05-09T20:23:26.572Z,9.24
2017-05-09T20:25:57.518Z,10.64
2017-05-09T20:28:27.519Z,10.76
2017-05-09T20:30:58.428Z,10.28
2017-05-09T20:33:28.417Z,9.28
2017-05-09T20:35:58.560Z,9.52
2017-05-09T20:38:28.588Z,17.20
2017-05-09T20:40:58.854Z,28.26
2017-05-09T20:43:28.869Z,15.98
2017-05-09T20:45:59.806Z,10.76
2017-05-09T20:48:29.629Z,9.78
2017-05-09T20:50:59.832Z,11.34
2017-05-09T20:53:29.816Z,9.60
2017-05-09T20:56:00.064Z,10.44
2017-05-09T20:58:30.794Z,32.34
2017-05-09T21:01:01.736Z,29.98
2017-05-09T21:03:32.532Z,13.36
2017-05-09T21:06:02.858Z,10.04
2017-05-09T21:08:33.036Z,10.10
2017-05-09T21:11:03.236Z,10.68
2017-05-09T21:13:33.238Z,10.04
2017-05-09T21:16:04.140Z,9.52
2017-05-09T21:18:34.129Z,9.64
2017-05-09T21:21:04.312Z,11.18
2017-05-09T21:23:35.051Z,11.56
2017-05-09T21:26:05.993Z,10.08
2017-05-09T21:28:35.984Z,11.14
2017-05-09T21:31:06.150Z,11.26
2017-05-09T21:33:36.145Z,12.08
2017-05-09T21:36:06.352Z,10.46
2017-05-09T21:38:37.084Z,11.20
2017-05-09T21:41:08.037Z,12.68
2017-05-09T21:43:38.016Z,11.18
2017-05-09T21:46:08.109Z,11.00
2017-05-09T21:48:38.105Z,10.56
2017-05-09T21:51:08.202Z,11.20
2017-05-09T21:53:38.927Z,16.80
2017-05-09T21:56:09.880Z,40.80
2017-05-09T21:58:39.886Z,17.14
2017-05-09T22:01:10.430Z,12.72
2017-05-09T22:03:40.417Z,11.34
2017-05-09T22:06:10.561Z,12.00
2017-05-09T22:08:40.572Z,12.62
2017-05-09T22:11:10.585Z,10.18
2017-05-09T22:13:41.316Z,10.56
2017-05-09T22:16:11.553Z,11.14
2017-05-09T22:18:41.542Z,11.60
2017-05-09T22:21:11.889Z,11.56
2017-05-09T22:23:41.894Z,11.42
2017-05-09T22:26:12.176Z,10.34
2017-05-09T22:28:42.180Z,11.90
2017-05-09T22:31:12.349Z,11.00
2017-05-09T22:33:43.087Z,11.82
2017-05-09T22:36:13.512Z,12.06
2017-05-09T22:38:43.518Z,13.10
2017-05-09T22:41:14.428Z,12.20
2017-05-09T22:43:44.417Z,12.18
2017-05-09T22:46:14.597Z,12.40
2017-05-09T22:48:44.584Z,11.88
2017-05-09T22:51:14.836Z,12.10
2017-05-09T22:53:44.815Z,11.46
2017-05-09T22:56:15.789Z,13.06
2017-05-09T22:58:45.983Z,12.46
2017-05-09T23:01:16.037Z,13.44
2017-05-09T23:03:46.074Z,13.36
2017-05-09T23:06:16.263Z,13.36
2017-05-09T23:08:46.260Z,12.58
2017-05-09T23:11:16.608Z,13.36
2017-05-09T23:13:46.587Z,13.06
2017-05-09T23:16:17.462Z,12.72
2017-05-09T23:18:47.465Z,13.82
2017-05-09T23:21:18.483Z,14.08
2017-05-09T23:23:48.485Z,14.44
2017-05-09T23:26:18.340Z,14.34
2017-05-09T23:28:48.353Z,13.12
2017-05-09T23:31:19.286Z,15.10
2017-05-09T23:33:49.278Z,13.42
2017-05-09T23:36:19.427Z,14.18
2017-05-09T23:38:50.105Z,13.90
2017-05-09T23:41:20.218Z,13.84
2017-05-09T23:43:50.201Z,15.00
2017-05-09T23:46:21.024Z,14.88
2017-05-09T23:48:51.000Z,14.26
2017-05-09T23:51:21.257Z,14.84
2017-05-09T23:53:51.977Z,14.82
2017-05-09T23:56:22.334Z,14.02
2017-05-09T23:58:52.185Z,14.30
